createdAt,value
2024-01-07T00:00:44.734Z,5.25
2024-01-07T00:03:32.869Z,5.22
2024-01-07T00:06:01.404Z,5.19
2024-01-07T00:08:29.436Z,5.17
2024-01-07T00:10:58.020Z,5.15
2024-01-07T00:13:26.117Z,5.13
2024-01-07T00:15:56.487Z,5.10
2024-01-07T00:18:25.700Z,5.08
2024-01-07T00:20:54.350Z,5.04
2024-01-07T00:23:22.463Z,5.02
2024-01-07T00:25:50.416Z,5.00
2024-01-07T00:28:18.315Z,4.99
2024-01-07T00:30:46.318Z,4.99
2024-01-07T00:33:14.669Z,5.00
2024-01-07T00:35:42.715Z,4.99
2024-01-07T00:38:10.913Z,4.99
2024-01-07T00:40:39.355Z,4.97
2024-01-07T00:43:07.719Z,4.95
2024-01-07T00:45:35.990Z,4.92
2024-01-07T00:48:04.375Z,4.90
2024-01-07T00:50:32.726Z,4.89
2024-01-07T00:53:00.885Z,4.90
2024-01-07T00:55:28.908Z,4.90
2024-01-07T00:57:57.264Z,4.89
2024-01-07T01:00:25.550Z,4.84
2024-01-07T01:02:53.778Z,4.83
2024-01-07T01:05:21.902Z,4.82
2024-01-07T01:07:49.838Z,4.82
2024-01-07T01:10:18.898Z,4.81
2024-01-07T01:12:46.992Z,4.83
2024-01-07T01:15:17.739Z,4.84
2024-01-07T01:17:45.814Z,4.82
2024-01-07T01:20:14.069Z,4.79
2024-01-07T01:22:41.957Z,4.78
2024-01-07T01:25:09.947Z,4.77
2024-01-07T01:27:38.337Z,4.76
2024-01-07T01:30:07.043Z,4.75
2024-01-07T01:32:35.026Z,4.74
2024-01-07T01:35:03.185Z,4.71
2024-01-07T01:37:33.753Z,4.70
2024-01-07T01:40:01.710Z,4.68
2024-01-07T01:42:29.680Z,4.65
2024-01-07T01:45:00.892Z,4.63
2024-01-07T01:47:31.110Z,4.58
2024-01-07T01:50:00.061Z,4.52
2024-01-07T01:52:28.513Z,4.47
2024-01-07T01:54:56.765Z,4.45
2024-01-07T01:57:26.040Z,4.43
2024-01-07T01:59:54.895Z,4.38
2024-01-07T02:02:23.100Z,4.34
2024-01-07T02:04:51.949Z,4.30
2024-01-07T02:07:19.937Z,4.28
2024-01-07T02:09:47.841Z,4.26
2024-01-07T02:12:16.078Z,4.22
2024-01-07T02:14:44.141Z,4.17
2024-01-07T02:17:12.214Z,4.14
2024-01-07T02:19:40.480Z,4.10
2024-01-07T02:22:08.696Z,4.03
2024-01-07T02:24:36.968Z,3.96
2024-01-07T02:27:05.343Z,3.90
2024-01-07T02:29:33.489Z,3.86
2024-01-07T02:32:01.416Z,3.81
2024-01-07T02:34:29.318Z,3.77
2024-01-07T02:36:57.431Z,3.76
2024-01-07T02:39:25.349Z,3.76
2024-01-07T02:41:53.153Z,3.75
2024-01-07T02:44:21.077Z,3.70
2024-01-07T02:46:49.173Z,3.67
2024-01-07T02:49:17.326Z,3.65
2024-01-07T02:51:50.297Z,3.64
2024-01-07T02:54:18.406Z,3.64
2024-01-07T02:56:46.787Z,3.63
2024-01-07T02:59:14.959Z,3.60
2024-01-07T03:01:43.578Z,3.57
2024-01-07T03:04:12.698Z,3.57
2024-01-07T03:06:40.667Z,3.57
2024-01-07T03:09:08.991Z,3.55
2024-01-07T03:11:40.503Z,3.54
2024-01-07T03:14:08.572Z,3.56
2024-01-07T03:16:36.798Z,3.58
2024-01-07T03:19:05.998Z,3.58
2024-01-07T03:21:34.303Z,3.59
2024-01-07T03:24:02.646Z,3.58
2024-01-07T03:26:31.649Z,3.56
2024-01-07T03:29:01.115Z,3.58
2024-01-07T03:31:29.622Z,3.60
2024-01-07T03:33:58.358Z,3.61
2024-01-07T03:36:26.756Z,3.61
2024-01-07T03:38:55.447Z,3.61
2024-01-07T03:41:23.513Z,3.63
2024-01-07T03:43:52.157Z,3.65
2024-01-07T03:46:20.258Z,3.67
2024-01-07T03:48:48.518Z,3.68
2024-01-07T03:51:18.412Z,3.68
2024-01-07T03:53:46.573Z,3.69
2024-01-07T03:56:14.765Z,3.68
2024-01-07T03:58:42.922Z,3.67
2024-01-07T04:01:10.995Z,3.67
2024-01-07T04:03:39.487Z,3.67
2024-01-07T04:06:09.020Z,3.67
2024-01-07T04:08:37.095Z,3.67
2024-01-07T04:11:04.996Z,3.69
2024-01-07T04:13:32.942Z,3.71
2024-01-07T04:16:00.926Z,3.71
2024-01-07T04:18:29.104Z,3.71
2024-01-07T04:20:57.520Z,3.73
2024-01-07T04:23:25.690Z,3.76
2024-01-07T04:25:53.625Z,3.79
2024-01-07T04:28:21.940Z,3.81
2024-01-07T04:30:50.214Z,3.81
2024-01-07T04:33:18.302Z,3.83
2024-01-07T04:35:46.289Z,3.86
2024-01-07T04:38:15.071Z,3.91
2024-01-07T04:40:43.416Z,3.92
2024-01-07T04:43:11.885Z,3.98
2024-01-07T04:45:39.973Z,4.03
2024-01-07T04:48:08.353Z,4.07
2024-01-07T04:50:36.432Z,4.10
2024-01-07T04:53:04.808Z,4.14
2024-01-07T04:55:32.885Z,4.22
2024-01-07T04:58:01.107Z,4.29
2024-01-07T05:00:29.208Z,4.36
2024-01-07T05:02:57.182Z,4.40
2024-01-07T05:05:25.154Z,4.44
2024-01-07T05:07:53.625Z,4.46
2024-01-07T05:10:21.747Z,4.45
2024-01-07T05:12:49.942Z,4.44
2024-01-07T05:15:18.177Z,4.46
2024-01-07T05:17:46.162Z,4.45
2024-01-07T05:20:16.399Z,4.44
2024-01-07T05:22:44.757Z,4.42
2024-01-07T05:25:12.837Z,4.39
2024-01-07T05:27:41.167Z,4.39
2024-01-07T05:30:09.507Z,4.36
2024-01-07T05:32:37.855Z,4.34
2024-01-07T05:35:06.441Z,4.31
2024-01-07T05:37:34.437Z,4.30
2024-01-07T05:40:02.621Z,4.30
2024-01-07T05:42:30.717Z,4.29
2024-01-07T05:44:58.605Z,4.25
2024-01-07T05:47:26.667Z,4.21
2024-01-07T05:49:54.727Z,4.18
2024-01-07T05:52:23.032Z,4.15
2024-01-07T05:54:51.162Z,4.10
2024-01-07T05:57:19.424Z,4.08
2024-01-07T05:59:50.544Z,4.07
2024-01-07T06:02:20.340Z,4.07
2024-01-07T06:04:48.596Z,4.07
2024-01-07T06:07:16.725Z,4.06
2024-01-07T06:09:44.759Z,4.03
2024-01-07T06:12:12.717Z,4.02
2024-01-07T06:14:40.611Z,4.00
2024-01-07T06:17:08.460Z,3.99
2024-01-07T06:19:37.481Z,3.98
2024-01-07T06:22:05.856Z,3.97
2024-01-07T06:24:33.813Z,3.96
2024-01-07T06:27:04.946Z,3.94
2024-01-07T06:29:33.043Z,3.92
2024-01-07T06:32:01.067Z,3.92
2024-01-07T06:34:29.049Z,3.92
2024-01-07T06:36:57.022Z,3.90
2024-01-07T06:39:28.319Z,3.90
2024-01-07T06:41:56.489Z,3.90
2024-01-07T06:44:24.353Z,3.91
2024-01-07T06:46:52.202Z,3.94
2024-01-07T06:49:20.149Z,3.95
2024-01-07T06:51:48.433Z,3.97
2024-01-07T06:54:16.709Z,3.99
2024-01-07T06:56:44.778Z,4.00
2024-01-07T06:59:13.104Z,4.01
2024-01-07T07:01:41.287Z,4.04
2024-01-07T07:04:09.709Z,4.09
2024-01-07T07:06:37.791Z,4.12
2024-01-07T07:09:05.795Z,4.15
2024-01-07T07:11:34.335Z,4.18
2024-01-07T07:14:02.243Z,4.21
2024-01-07T07:16:30.161Z,4.24
2024-01-07T07:18:58.088Z,4.26
2024-01-07T07:21:28.216Z,4.28
2024-01-07T07:23:56.565Z,4.31
2024-01-07T07:26:24.851Z,4.33
2024-01-07T07:28:52.786Z,4.36
2024-01-07T07:31:20.746Z,4.41
2024-01-07T07:33:48.827Z,4.45
2024-01-07T07:36:17.003Z,4.50
2024-01-07T07:38:44.984Z,4.56
2024-01-07T07:41:13.045Z,4.65
2024-01-07T07:43:40.893Z,4.76
2024-01-07T07:46:08.865Z,4.87
2024-01-07T07:48:37.227Z,4.97
2024-01-07T07:51:05.374Z,5.06
2024-01-07T07:53:33.264Z,5.15
2024-01-07T07:56:02.452Z,5.22
2024-01-07T07:58:30.473Z,5.30
2024-01-07T08:00:59.176Z,5.37
2024-01-07T08:03:27.911Z,5.43
2024-01-07T08:05:56.021Z,5.48
2024-01-07T08:08:24.022Z,5.53
2024-01-07T08:10:52.262Z,5.57
2024-01-07T08:13:20.496Z,5.60
2024-01-07T08:15:49.166Z,5.64
2024-01-07T08:18:17.250Z,5.69
2024-01-07T08:20:45.211Z,5.76
2024-01-07T08:23:13.504Z,5.84
2024-01-07T08:25:42.568Z,5.93
2024-01-07T08:28:11.164Z,6.06
2024-01-07T08:30:39.336Z,6.23
2024-01-07T08:33:07.645Z,6.43
2024-01-07T08:35:35.672Z,6.70
2024-01-07T08:38:04.644Z,6.98
2024-01-07T08:40:32.679Z,7.26
2024-01-07T08:43:00.595Z,7.59
2024-01-07T08:45:28.578Z,7.97
2024-01-07T08:47:56.819Z,8.39
2024-01-07T08:50:25.001Z,8.83
2024-01-07T08:52:53.406Z,9.26
2024-01-07T08:55:21.458Z,9.67
2024-01-07T08:57:50.519Z,10.10
2024-01-07T09:00:18.956Z,10.55
2024-01-07T09:02:47.060Z,10.99
2024-01-07T09:05:15.522Z,11.44
2024-01-07T09:07:43.584Z,11.88
2024-01-07T09:10:12.874Z,12.32
2024-01-07T09:12:41.063Z,12.73
2024-01-07T09:15:09.672Z,13.09
2024-01-07T09:17:39.035Z,13.40
2024-01-07T09:20:09.626Z,13.86
2024-01-07T09:22:37.921Z,14.19
2024-01-07T09:25:06.899Z,14.17
2024-01-07T09:27:35.578Z,14.15
2024-01-07T09:30:04.148Z,14.26
2024-01-07T09:32:35.327Z,14.62
2024-01-07T09:35:07.374Z,14.93
2024-01-07T09:37:36.805Z,15.47
2024-01-07T09:40:07.881Z,16.17
2024-01-07T09:42:36.169Z,16.96
2024-01-07T09:45:07.645Z,17.71
2024-01-07T09:47:36.614Z,18.52
2024-01-07T09:50:06.719Z,19.23
2024-01-07T09:52:35.365Z,19.87
2024-01-07T09:55:05.186Z,20.46
2024-01-07T09:57:35.046Z,21.05
2024-01-07T10:00:03.275Z,21.62
2024-01-07T10:02:42.808Z,22.20
2024-01-07T10:05:11.301Z,22.61
2024-01-07T10:07:39.510Z,22.81
2024-01-07T10:10:17.220Z,22.91
2024-01-07T10:12:47.592Z,22.80
2024-01-07T10:15:15.994Z,22.46
2024-01-07T10:17:44.495Z,22.51
2024-01-07T10:20:14.091Z,22.84
2024-01-07T10:22:42.677Z,23.17
2024-01-07T10:25:11.171Z,23.38
2024-01-07T10:27:39.780Z,23.64
2024-01-07T10:30:08.243Z,23.66
2024-01-07T10:32:42.539Z,23.64
2024-01-07T10:35:15.764Z,23.78
2024-01-07T10:37:48.511Z,23.94
2024-01-07T10:40:20.245Z,24.15
2024-01-07T10:42:50.118Z,24.42
2024-01-07T10:45:18.552Z,24.79
2024-01-07T10:47:49.700Z,25.24
2024-01-07T10:50:18.807Z,25.79
2024-01-07T10:52:50.230Z,26.38
2024-01-07T10:55:19.553Z,26.87
2024-01-07T10:57:49.140Z,27.47
2024-01-07T11:00:21.289Z,27.99
2024-01-07T11:03:07.912Z,28.31
2024-01-07T11:06:14.987Z,28.60
2024-01-07T11:08:47.184Z,28.89
2024-01-07T11:11:17.461Z,28.67
2024-01-07T11:13:45.819Z,28.52
2024-01-07T11:16:14.044Z,28.25
2024-01-07T11:18:51.236Z,27.85
2024-01-07T11:21:23.405Z,27.40
2024-01-07T11:23:53.422Z,27.11
2024-01-07T11:26:21.789Z,27.09
2024-01-07T11:28:53.767Z,26.84
2024-01-07T11:31:23.561Z,26.71
2024-01-07T11:33:52.485Z,26.62
2024-01-07T11:36:20.996Z,26.33
2024-01-07T11:38:53.397Z,26.38
2024-01-07T11:41:23.289Z,26.10
2024-01-07T11:43:55.625Z,25.69
2024-01-07T11:46:24.273Z,24.66
2024-01-07T11:49:00.185Z,23.97
2024-01-07T11:51:32.906Z,23.19
2024-01-07T11:54:01.759Z,22.20
2024-01-07T11:56:30.608Z,21.45
2024-01-07T11:58:58.666Z,20.70
2024-01-07T12:01:28.156Z,19.95
2024-01-07T12:03:56.623Z,19.42
2024-01-07T12:06:26.333Z,18.88
2024-01-07T12:08:55.108Z,18.48
2024-01-07T12:11:23.444Z,18.01
2024-01-07T12:13:52.258Z,17.65
2024-01-07T12:16:20.359Z,17.22
2024-01-07T12:18:49.112Z,16.92
2024-01-07T12:21:24.230Z,16.62
2024-01-07T12:23:52.665Z,16.28
2024-01-07T12:26:20.693Z,16.00
2024-01-07T12:28:56.119Z,15.72
2024-01-07T12:31:24.811Z,15.37
2024-01-07T12:33:53.395Z,15.09
2024-01-07T12:36:23.024Z,14.84
2024-01-07T12:38:52.698Z,14.61
2024-01-07T12:41:21.192Z,14.40
2024-01-07T12:43:49.192Z,14.25
2024-01-07T12:46:17.307Z,14.10
2024-01-07T12:48:45.383Z,14.01
2024-01-07T12:51:13.482Z,13.93
2024-01-07T12:53:41.593Z,13.85
2024-01-07T12:56:09.536Z,13.78
2024-01-07T12:58:37.458Z,13.70
2024-01-07T13:01:05.565Z,13.61
2024-01-07T13:03:33.882Z,13.50
2024-01-07T13:06:02.898Z,13.37
2024-01-07T13:08:31.221Z,13.19
2024-01-07T13:11:00.781Z,13.04
2024-01-07T13:13:29.179Z,12.90
2024-01-07T13:15:58.513Z,12.76
2024-01-07T13:18:27.502Z,12.64
2024-01-07T13:20:55.491Z,12.51
2024-01-07T13:23:23.731Z,12.39
2024-01-07T13:25:51.674Z,12.25
2024-01-07T13:28:20.706Z,12.15
2024-01-07T13:30:48.782Z,12.06
2024-01-07T13:33:19.027Z,11.93
2024-01-07T13:35:48.794Z,11.83
2024-01-07T13:38:16.712Z,11.75
2024-01-07T13:40:44.637Z,11.68
2024-01-07T13:43:13.373Z,11.61
2024-01-07T13:45:42.242Z,11.55
2024-01-07T13:48:10.488Z,11.48
2024-01-07T13:50:38.670Z,11.42
2024-01-07T13:53:06.864Z,11.36
2024-01-07T13:55:35.023Z,11.27
2024-01-07T13:58:03.242Z,11.19
2024-01-07T14:00:32.239Z,11.12
2024-01-07T14:03:00.458Z,11.03
2024-01-07T14:05:29.351Z,10.96
2024-01-07T14:07:57.314Z,10.90
2024-01-07T14:10:25.304Z,10.83
2024-01-07T14:12:53.301Z,10.76
2024-01-07T14:15:21.153Z,10.68
2024-01-07T14:17:50.492Z,10.56
2024-01-07T14:20:18.713Z,10.50
2024-01-07T14:22:47.115Z,10.44
2024-01-07T14:25:15.776Z,10.40
2024-01-07T14:27:44.899Z,10.33
2024-01-07T14:30:19.996Z,10.28
2024-01-07T14:32:49.726Z,10.23
2024-01-07T14:35:17.860Z,10.18
2024-01-07T14:37:46.024Z,10.12
2024-01-07T14:40:14.320Z,10.06
2024-01-07T14:42:42.314Z,10.05
2024-01-07T14:45:10.691Z,10.03
2024-01-07T14:47:38.698Z,10.00
2024-01-07T14:50:08.653Z,9.96
2024-01-07T14:52:36.846Z,9.94
2024-01-07T14:55:04.972Z,9.92
2024-01-07T14:57:33.325Z,9.89
2024-01-07T15:00:01.404Z,9.85
2024-01-07T15:02:29.685Z,9.82
2024-01-07T15:04:58.569Z,9.79
2024-01-07T15:07:26.781Z,9.74
2024-01-07T15:09:54.824Z,9.70
2024-01-07T15:12:24.287Z,9.66
2024-01-07T15:14:52.675Z,9.64
2024-01-07T15:17:21.090Z,9.57
2024-01-07T15:19:49.275Z,9.54
2024-01-07T15:22:17.365Z,9.51
2024-01-07T15:24:45.460Z,9.48
2024-01-07T15:27:13.571Z,9.42
2024-01-07T15:29:41.556Z,9.39
2024-01-07T15:32:09.761Z,9.37
2024-01-07T15:34:37.828Z,9.34
2024-01-07T15:37:06.022Z,9.32
2024-01-07T15:39:34.163Z,9.30
2024-01-07T15:42:02.313Z,9.25
2024-01-07T15:44:31.374Z,9.22
2024-01-07T15:46:59.446Z,9.21
2024-01-07T15:49:27.585Z,9.17
2024-01-07T15:51:55.584Z,9.14
2024-01-07T15:54:23.658Z,9.12
2024-01-07T15:56:51.759Z,9.10
2024-01-07T15:59:19.726Z,9.05
2024-01-07T16:01:48.343Z,8.99
2024-01-07T16:04:18.544Z,8.97
2024-01-07T16:06:50.076Z,8.94
2024-01-07T16:09:18.157Z,8.91
2024-01-07T16:11:46.930Z,8.87
2024-01-07T16:14:15.105Z,8.80
2024-01-07T16:16:43.163Z,8.74
2024-01-07T16:19:14.121Z,8.71
2024-01-07T16:21:42.521Z,8.66
2024-01-07T16:24:10.670Z,8.59
2024-01-07T16:26:42.253Z,8.52
2024-01-07T16:29:10.804Z,8.48
2024-01-07T16:31:38.950Z,8.46
2024-01-07T16:34:07.507Z,8.43
2024-01-07T16:36:35.901Z,8.41
2024-01-07T16:39:05.334Z,8.39
2024-01-07T16:41:33.355Z,8.36
2024-01-07T16:44:01.404Z,8.31
2024-01-07T16:46:29.498Z,8.29
2024-01-07T16:50:17.793Z,8.28
2024-01-07T16:51:45.576Z,8.26
2024-01-07T16:54:13.648Z,8.22
2024-01-07T16:56:41.599Z,8.20
2024-01-07T16:59:09.734Z,8.15
2024-01-07T17:01:37.979Z,8.09
2024-01-07T17:04:06.110Z,8.06
2024-01-07T17:06:34.434Z,8.03
2024-01-07T17:09:02.477Z,7.95
2024-01-07T17:11:31.120Z,7.94
2024-01-07T17:13:59.473Z,7.91
2024-01-07T17:16:30.048Z,7.88
2024-01-07T17:18:58.289Z,7.85
2024-01-07T17:21:26.601Z,7.81
2024-01-07T17:23:54.849Z,7.78
2024-01-07T17:26:25.210Z,7.74
2024-01-07T17:28:53.771Z,7.72
2024-01-07T17:31:21.884Z,7.70
2024-01-07T17:33:52.934Z,7.66
2024-01-07T17:36:21.335Z,7.66
2024-01-07T17:38:49.690Z,7.64
2024-01-07T17:41:17.595Z,7.61
2024-01-07T17:43:45.796Z,7.58
2024-01-07T17:46:13.901Z,7.57
2024-01-07T17:48:42.203Z,7.57
2024-01-07T17:51:10.170Z,7.55
2024-01-07T17:53:42.258Z,7.52
2024-01-07T17:56:18.510Z,7.51
2024-01-07T17:58:47.139Z,7.49
2024-01-07T18:01:15.183Z,7.45
2024-01-07T18:03:43.890Z,7.44
2024-01-07T18:06:12.262Z,7.41
2024-01-07T18:08:46.694Z,7.41
2024-01-07T18:11:18.299Z,7.39
2024-01-07T18:13:46.514Z,7.40
2024-01-07T18:16:15.126Z,7.37
2024-01-07T18:18:43.350Z,7.35
2024-01-07T18:21:14.370Z,7.35
2024-01-07T18:23:43.045Z,7.34
2024-01-07T18:26:14.166Z,7.31
2024-01-07T18:28:43.778Z,7.29
2024-01-07T18:31:12.542Z,7.28
2024-01-07T18:33:40.781Z,7.27
2024-01-07T18:36:09.779Z,7.26
2024-01-07T18:38:38.979Z,7.24
2024-01-07T18:41:07.156Z,7.25
2024-01-07T18:43:35.412Z,7.25
2024-01-07T18:46:04.325Z,7.21
2024-01-07T18:48:32.464Z,7.19
2024-01-07T18:51:03.300Z,7.17
2024-01-07T18:53:31.274Z,7.17
2024-01-07T18:55:59.379Z,7.18
2024-01-07T18:58:27.737Z,7.17
2024-01-07T19:00:55.913Z,7.17
2024-01-07T19:03:24.112Z,7.17
2024-01-07T19:05:52.613Z,7.18
2024-01-07T19:08:20.818Z,7.18
2024-01-07T19:10:48.948Z,7.18
2024-01-07T19:13:17.165Z,7.18
2024-01-07T19:15:48.015Z,7.20
2024-01-07T19:18:16.128Z,7.22
2024-01-07T19:20:44.245Z,7.22
2024-01-07T19:23:12.212Z,7.20
2024-01-07T19:25:40.134Z,7.18
2024-01-07T19:28:08.128Z,7.18
2024-01-07T19:30:36.110Z,7.18
2024-01-07T19:33:04.698Z,7.19
2024-01-07T19:35:32.974Z,7.21
2024-01-07T19:38:00.920Z,7.20
2024-01-07T19:40:30.650Z,7.22
2024-01-07T19:42:58.877Z,7.21
2024-01-07T19:45:29.737Z,7.22
2024-01-07T19:47:58.242Z,7.22
2024-01-07T19:50:26.977Z,7.20
2024-01-07T19:52:55.656Z,7.21
2024-01-07T19:55:24.050Z,7.20
2024-01-07T19:57:51.988Z,7.18
2024-01-07T20:00:20.225Z,7.16
2024-01-07T20:02:50.406Z,7.11
2024-01-07T20:05:18.755Z,7.08
2024-01-07T20:07:47.323Z,7.05
2024-01-07T20:10:16.447Z,7.03
2024-01-07T20:12:45.398Z,7.01
2024-01-07T20:15:13.638Z,6.99
2024-01-07T20:17:41.937Z,6.95
2024-01-07T20:20:11.743Z,6.95
2024-01-07T20:22:39.706Z,6.93
2024-01-07T20:25:08.657Z,6.91
2024-01-07T20:27:36.699Z,6.87
2024-01-07T20:30:05.360Z,6.86
2024-01-07T20:32:36.369Z,6.83
2024-01-07T20:35:04.700Z,6.78
2024-01-07T20:37:32.828Z,6.75
2024-01-07T20:40:00.889Z,6.74
2024-01-07T20:42:38.520Z,6.74
2024-01-07T20:45:09.086Z,6.73
2024-01-07T20:47:37.745Z,6.72
2024-01-07T20:50:06.535Z,6.69
2024-01-07T20:52:34.762Z,6.66
2024-01-07T20:55:02.673Z,6.65
2024-01-07T20:57:31.311Z,6.64
2024-01-07T20:59:59.377Z,6.61
2024-01-07T21:02:28.510Z,6.59
2024-01-07T21:04:56.985Z,6.57
2024-01-07T21:07:28.951Z,6.54
2024-01-07T21:09:58.628Z,6.53
2024-01-07T21:12:26.814Z,6.50
2024-01-07T21:14:55.431Z,6.46
2024-01-07T21:17:23.714Z,6.43
2024-01-07T21:19:51.969Z,6.42
2024-01-07T21:22:20.128Z,6.41
2024-01-07T21:24:48.189Z,6.39
2024-01-07T21:27:16.259Z,6.39
2024-01-07T21:29:44.229Z,6.37
2024-01-07T21:32:12.137Z,6.35
2024-01-07T21:34:40.172Z,6.33
2024-01-07T21:37:08.075Z,6.31
2024-01-07T21:39:37.481Z,6.27
2024-01-07T21:42:05.517Z,6.27
2024-01-07T21:44:34.239Z,6.26
2024-01-07T21:47:03.054Z,6.25
2024-01-07T21:49:31.271Z,6.25
2024-01-07T21:51:59.337Z,6.23
2024-01-07T21:54:27.419Z,6.22
2024-01-07T21:56:57.960Z,6.21
2024-01-07T21:59:25.880Z,6.20
2024-01-07T22:01:54.115Z,6.20
2024-01-07T22:04:22.155Z,6.20
2024-01-07T22:06:50.332Z,6.17
2024-01-07T22:09:21.290Z,6.15
2024-01-07T22:11:49.782Z,6.12
2024-01-07T22:14:18.134Z,6.11
2024-01-07T22:16:46.345Z,6.09
2024-01-07T22:19:14.778Z,6.08
2024-01-07T22:21:42.854Z,6.08
2024-01-07T22:24:11.026Z,6.08
2024-01-07T22:26:43.975Z,6.06
2024-01-07T22:29:12.081Z,6.01
2024-01-07T22:31:40.263Z,5.97
2024-01-07T22:34:09.845Z,5.93
2024-01-07T22:36:39.818Z,5.90
2024-01-07T22:39:09.715Z,5.90
2024-01-07T22:41:45.543Z,5.88
2024-01-07T22:44:16.479Z,5.85
2024-01-07T22:46:50.673Z,5.79
2024-01-07T22:49:19.253Z,5.78
2024-01-07T22:51:47.936Z,5.78
2024-01-07T22:54:16.156Z,5.76
2024-01-07T22:56:44.920Z,5.73
2024-01-07T22:59:15.207Z,5.68
2024-01-07T23:01:43.804Z,5.65
2024-01-07T23:04:12.170Z,5.63
2024-01-07T23:06:41.133Z,5.59
2024-01-07T23:09:11.153Z,5.57
2024-01-07T23:11:39.041Z,5.56
2024-01-07T23:14:07.422Z,5.55
2024-01-07T23:16:35.776Z,5.52
2024-01-07T23:19:05.993Z,5.49
2024-01-07T23:21:33.987Z,5.49
2024-01-07T23:24:02.474Z,5.48
2024-01-07T23:26:30.922Z,5.47
2024-01-07T23:29:00.112Z,5.46
2024-01-07T23:31:28.925Z,5.46
2024-01-07T23:33:57.732Z,5.47
2024-01-07T23:36:27.083Z,5.46
2024-01-07T23:38:56.731Z,5.47
2024-01-07T23:41:24.706Z,5.50
2024-01-07T23:43:53.027Z,5.51
2024-01-07T23:46:21.118Z,5.54
2024-01-07T23:48:49.558Z,5.55
2024-01-07T23:51:17.620Z,5.57
2024-01-07T23:53:45.678Z,5.58
2024-01-07T23:56:13.778Z,5.59
2024-01-07T23:58:41.720Z,5.61
